createdAt,value
2017-03-13T06:17:40.143Z,88.4
2017-03-13T06:18:20.843Z,88.12
2017-03-13T06:19:01.506Z,88.02
2017-03-13T06:19:42.178Z,88.02
2017-03-13T06:20:35.718Z,87.84
2017-03-13T06:21:16.355Z,87.93
2017-03-13T06:21:58.964Z,87.74
2017-03-13T06:22:39.632Z,87.74
2017-03-13T06:23:20.273Z,87.93
2017-03-13T06:24:00.866Z,88.12
2017-03-13T06:24:41.453Z,87.93
2017-03-13T06:25:22.007Z,88.02
2017-03-13T06:26:02.679Z,87.93
2017-03-13T06:26:43.272Z,88.12
2017-03-13T06:27:23.871Z,88.21
2017-03-13T06:28:04.463Z,88.02
2017-03-13T06:28:45.108Z,88.12
2017-03-13T06:29:25.672Z,87.65
2017-03-13T06:30:06.298Z,87.84
2017-03-13T06:30:46.949Z,87.65
2017-03-13T06:31:27.591Z,87.65
2017-03-13T06:32:08.268Z,87.78
2017-03-13T06:32:48.906Z,87.84
2017-03-13T06:33:29.547Z,87.84
2017-03-13T06:34:10.226Z,87.84
2017-03-13T06:34:50.789Z,88.07
2017-03-13T06:35:31.425Z,87.21
2017-03-13T06:36:12.050Z,87.5
2017-03-13T06:36:52.622Z,87.31
2017-03-13T06:37:33.263Z,87.12
2017-03-13T06:38:13.905Z,87.02
2017-03-13T06:38:54.454Z,87.5
2017-03-13T06:39:35.154Z,86.83
2017-03-13T06:40:15.841Z,87.12
2017-03-13T06:40:56.511Z,87.02
2017-03-13T06:41:37.076Z,87.12
2017-03-13T06:42:17.742Z,87.02
2017-03-13T06:42:58.431Z,87.02
2017-03-13T06:43:39.012Z,86.93
2017-03-13T06:44:19.642Z,86.74
2017-03-13T06:45:00.258Z,86.65
2017-03-13T06:45:40.908Z,87.12
2017-03-13T06:46:21.559Z,86.93
2017-03-13T06:47:02.214Z,86.36
2017-03-13T06:47:42.871Z,86.36
2017-03-13T06:48:23.568Z,86.55
2017-03-13T06:49:04.173Z,86.55
2017-03-13T06:49:44.811Z,86.18
2017-03-13T06:50:25.388Z,86.55
2017-03-13T06:51:05.995Z,86.46
2017-03-13T06:51:46.662Z,86.46
2017-03-13T06:52:27.226Z,86.36
2017-03-13T06:53:07.881Z,86.74
2017-03-13T06:53:48.525Z,86.18
2017-03-13T06:54:29.174Z,86.18
2017-03-13T06:55:09.818Z,86.27
2017-03-13T06:55:50.471Z,85.99
2017-03-13T06:56:31.137Z,85.99
2017-03-13T06:57:11.782Z,86.03
2017-03-13T06:57:52.432Z,85.93
2017-03-13T06:58:33.021Z,86.03
2017-03-13T06:59:13.665Z,86.03
2017-03-13T06:59:54.341Z,86.12
2017-03-13T07:00:34.912Z,85.65
2017-03-13T07:01:15.490Z,85.84
2017-03-13T07:01:56.159Z,85.27
2017-03-13T07:02:36.753Z,85.27
2017-03-13T07:03:17.337Z,85.46
2017-03-13T07:03:57.901Z,85.46
2017-03-13T07:04:38.574Z,85.65
2017-03-13T07:05:19.163Z,85.08
2017-03-13T07:05:59.759Z,84.99
2017-03-13T07:06:40.345Z,85.17
2017-03-13T07:07:21.070Z,84.89
2017-03-13T07:08:01.708Z,84.8
2017-03-13T07:08:42.508Z,84.8
2017-03-13T07:09:23.184Z,84.89
2017-03-13T07:10:03.840Z,84.61
2017-03-13T07:10:44.506Z,84.32
2017-03-13T07:11:25.139Z,84.51
2017-03-13T07:12:05.817Z,84.8
2017-03-13T07:12:46.445Z,84.23
2017-03-13T07:13:27.107Z,84.23
2017-03-13T07:14:07.751Z,84.42
2017-03-13T07:14:48.397Z,84.42
2017-03-13T07:15:29.059Z,84.04
2017-03-13T07:16:09.664Z,84.23
2017-03-13T07:16:50.341Z,84.23
2017-03-13T07:17:30.947Z,84.42
2017-03-13T07:18:11.595Z,83.47
2017-03-13T07:18:52.205Z,83.56
2017-03-13T07:19:32.843Z,83.37
2017-03-13T07:20:13.547Z,83.28
2017-03-13T07:20:54.147Z,83.56
2017-03-13T07:21:34.797Z,83.51
2017-03-13T07:22:15.447Z,83.18
2017-03-13T07:22:56.155Z,83.04
2017-03-13T07:23:36.913Z,83.04
2017-03-13T07:24:18.588Z,83.32
2017-03-13T07:24:59.272Z,83.23
2017-03-13T07:25:39.938Z,83.04
2017-03-13T07:26:20.594Z,83.32
2017-03-13T07:27:01.246Z,83.23
2017-03-13T07:27:41.892Z,83.13
2017-03-13T07:28:22.580Z,83.42
2017-03-13T07:29:03.265Z,83.13
2017-03-13T07:29:43.974Z,82.85
2017-03-13T07:30:24.615Z,82.94
2017-03-13T07:31:06.328Z,82.56
2017-03-13T07:31:46.966Z,82.66
2017-03-13T07:32:27.674Z,82.56
2017-03-13T07:33:08.368Z,82.47
2017-03-13T07:33:49.009Z,82.47
2017-03-13T07:34:29.561Z,82.28
2017-03-13T07:35:10.381Z,82.28
2017-03-13T07:35:50.942Z,82.18
2017-03-13T07:36:31.687Z,82.56
2017-03-13T07:37:12.239Z,82.18
2017-03-13T07:37:52.849Z,82.51
2017-03-13T07:38:33.411Z,81.99
2017-03-13T07:39:13.980Z,81.94
2017-03-13T07:39:54.541Z,82.04
2017-03-13T07:40:35.159Z,81.94
2017-03-13T07:41:17.754Z,81.94
2017-03-13T07:41:58.325Z,81.75
2017-03-13T07:42:39.915Z,81.66
2017-03-13T07:43:21.497Z,81.85
2017-03-13T07:44:03.107Z,81.27
2017-03-13T07:44:44.691Z,81.56
2017-03-13T07:45:26.249Z,81.47
2017-03-13T07:46:06.837Z,81.37
2017-03-13T07:46:47.448Z,81.27
2017-03-13T07:47:29.027Z,81.09
2017-03-13T07:48:09.679Z,80.9
2017-03-13T07:48:50.313Z,81.18
2017-03-13T07:49:31.008Z,80.71
2017-03-13T07:50:16.334Z,80.75
2017-03-13T07:50:56.904Z,80.71
2017-03-13T07:51:37.591Z,80.46
2017-03-13T07:52:19.193Z,80.37
2017-03-13T07:52:59.782Z,80.27
2017-03-13T07:53:42.499Z,80.18
2017-03-13T07:54:23.149Z,79.8
2017-03-13T07:55:09.530Z,80.18
2017-03-13T07:55:50.205Z,79.61
2017-03-13T07:56:31.865Z,79.61
2017-03-13T07:57:17.021Z,79.33
2017-03-13T07:57:58.620Z,79.42
2017-03-13T07:58:40.194Z,79.14
2017-03-13T07:59:21.755Z,79.23
2017-03-13T08:00:03.320Z,79.14
2017-03-13T08:00:45.885Z,79.04
2017-03-13T08:01:27.494Z,78.75
2017-03-13T08:02:08.162Z,79.23
2017-03-13T08:02:48.798Z,78.95
2017-03-13T08:03:31.412Z,78.28
2017-03-13T08:04:12.105Z,78.19
2017-03-13T08:04:52.685Z,78.47
2017-03-13T08:05:38.266Z,78.47
2017-03-13T08:06:23.551Z,78.66
2017-03-13T08:07:05.163Z,78.28
2017-03-13T08:07:45.721Z,78.38
2017-03-13T08:08:31.197Z,78
2017-03-13T08:09:17.534Z,77.62
2017-03-13T08:09:58.101Z,77.52
2017-03-13T08:10:39.717Z,77.14
2017-03-13T08:11:21.393Z,77.14
2017-03-13T08:12:02.968Z,77.43
2017-03-13T08:12:43.534Z,76.57
2017-03-13T08:13:25.111Z,76.57
2017-03-13T08:14:05.677Z,76.57
2017-03-13T08:14:46.250Z,76.48
2017-03-13T08:15:27.833Z,76.2
2017-03-13T08:16:08.366Z,76.32
2017-03-13T08:16:49.009Z,76.61
2017-03-13T08:17:29.571Z,76.1
2017-03-13T08:18:12.225Z,76.39
2017-03-13T08:18:52.791Z,75.67
2017-03-13T08:19:34.362Z,75.95
2017-03-13T08:20:14.933Z,75.47
2017-03-13T08:20:55.487Z,75.38
2017-03-13T08:21:36.055Z,75.09
2017-03-13T08:22:16.623Z,75.19
2017-03-13T08:22:58.198Z,74.81
2017-03-13T08:23:38.783Z,74.9
2017-03-13T08:24:20.364Z,74.9
2017-03-13T08:25:00.936Z,74.9
2017-03-13T08:25:41.508Z,74.9
2017-03-13T08:26:22.103Z,74.81
2017-03-13T08:27:02.690Z,75.09
2017-03-13T08:27:43.388Z,75.19
2017-03-13T08:28:23.955Z,75
2017-03-13T08:29:05.639Z,75.09
2017-03-13T08:29:47.310Z,75.09
2017-03-13T08:30:30.008Z,75.19
2017-03-13T08:31:10.645Z,74.9
2017-03-13T08:31:53.266Z,74.81
2017-03-13T08:32:34.927Z,75
2017-03-13T08:33:17.551Z,74.81
2017-03-13T08:33:59.122Z,74.81
2017-03-13T08:34:39.683Z,74.9
2017-03-13T08:35:20.273Z,74.9
2017-03-13T08:36:00.820Z,74.9
2017-03-13T08:36:43.396Z,74.62
2017-03-13T08:37:23.955Z,74.62
2017-03-13T08:38:04.545Z,75
2017-03-13T08:38:51.960Z,74.9
2017-03-13T08:39:32.522Z,75.09
2017-03-13T08:40:13.176Z,75.19
2017-03-13T08:40:54.798Z,75.19
2017-03-13T08:41:41.427Z,75.47
2017-03-13T08:42:21.993Z,75.34
2017-03-13T08:43:03.587Z,75.76
2017-03-13T08:43:44.274Z,75.34
2017-03-13T08:44:25.982Z,75.47
2017-03-13T08:45:06.551Z,75.43
2017-03-13T08:45:47.193Z,75.53
2017-03-13T08:46:32.511Z,75.43
2017-03-13T08:47:13.205Z,75.43
2017-03-13T08:47:53.778Z,75.43
2017-03-13T08:48:34.426Z,75.34
2017-03-13T08:49:16.050Z,75.43
2017-03-13T08:49:58.651Z,75.62
2017-03-13T08:50:41.339Z,75.43
2017-03-13T08:51:23.836Z,75.43
2017-03-13T08:52:04.505Z,75.62
2017-03-13T08:52:45.061Z,75.15
2017-03-13T08:53:25.633Z,75.43
2017-03-13T08:54:06.224Z,75.15
2017-03-13T08:54:46.774Z,75.43
2017-03-13T08:55:27.414Z,74.77
2017-03-13T08:56:08.104Z,75.15
2017-03-13T08:56:49.715Z,74.77
2017-03-13T08:57:30.281Z,74.77
2017-03-13T08:58:10.961Z,74.87
2017-03-13T08:58:51.676Z,74.77
2017-03-13T08:59:32.327Z,74.87
2017-03-13T09:00:12.920Z,74.96
2017-03-13T09:00:59.207Z,74.96
2017-03-13T09:01:40.813Z,74.77
2017-03-13T09:02:21.493Z,74.68
2017-03-13T09:03:02.060Z,74.96
2017-03-13T09:03:42.813Z,75
2017-03-13T09:04:23.418Z,74.9
2017-03-13T09:05:04.125Z,75
2017-03-13T09:05:44.776Z,74.9
2017-03-13T09:06:25.428Z,74.9
2017-03-13T09:07:06.083Z,75
2017-03-13T09:07:46.734Z,74.71
2017-03-13T09:08:27.385Z,74.9
2017-03-13T09:09:08.076Z,75.47
2017-03-13T09:09:48.732Z,75.47
2017-03-13T09:10:30.454Z,75.57
2017-03-13T09:11:11.010Z,75.57
2017-03-13T09:11:51.700Z,75.38
2017-03-13T09:12:32.383Z,74.81
2017-03-13T09:13:13.078Z,74.81
2017-03-13T09:13:53.629Z,74.24
2017-03-13T09:14:34.295Z,74.81
2017-03-13T09:15:14.959Z,74.85
2017-03-13T09:15:55.595Z,74.85
2017-03-13T09:16:37.204Z,74.75
2017-03-13T09:17:17.862Z,74.56
2017-03-13T09:17:58.493Z,74.47
2017-03-13T09:18:39.127Z,74.47
2017-03-13T09:19:19.845Z,74.37
2017-03-13T09:20:00.433Z,73.9
2017-03-13T09:20:41.019Z,74.18
2017-03-13T09:21:21.732Z,73.9
2017-03-13T09:22:02.458Z,73.61
2017-03-13T09:22:43.049Z,73.8
2017-03-13T09:23:23.726Z,73.8
2017-03-13T09:24:04.422Z,73.8
2017-03-13T09:24:44.998Z,73.61
2017-03-13T09:25:26.658Z,73.33
2017-03-13T09:26:14.185Z,73.36
2017-03-13T09:26:55.855Z,73.46
2017-03-13T09:27:41.214Z,73.55
2017-03-13T09:28:22.890Z,72.99
2017-03-13T09:29:04.479Z,72.89
2017-03-13T09:29:51.873Z,72.99
2017-03-13T09:30:32.428Z,72.99
2017-03-13T09:31:14.159Z,72.51
2017-03-13T09:31:54.785Z,72.99
2017-03-13T09:32:35.322Z,73.08
2017-03-13T09:33:17.918Z,73.08
2017-03-13T09:33:58.561Z,72.41
2017-03-13T09:34:39.211Z,72.6
2017-03-13T09:35:19.863Z,72.13
2017-03-13T09:36:01.541Z,71.37
2017-03-13T09:36:42.192Z,71.84
2017-03-13T09:37:22.849Z,71.08
2017-03-13T09:38:09.935Z,70.89
2017-03-13T09:38:52.549Z,70.7
2017-03-13T09:39:35.250Z,70.51
2017-03-13T09:40:22.454Z,70.51
2017-03-13T09:41:03.108Z,70.26
2017-03-13T09:41:43.763Z,70.26
2017-03-13T09:42:24.414Z,69.6
2017-03-13T09:43:05.162Z,69.41
2017-03-13T09:43:46.844Z,69.5
2017-03-13T09:44:27.491Z,69.41
2017-03-13T09:45:09.097Z,69.21
2017-03-13T09:45:49.759Z,69.12
2017-03-13T09:46:30.395Z,68.74
2017-03-13T09:47:12.979Z,68.96
2017-03-13T09:47:53.653Z,68.87
2017-03-13T09:48:35.327Z,68.11
2017-03-13T09:49:17.002Z,68.11
2017-03-13T09:50:02.510Z,67.82
2017-03-13T09:50:43.111Z,67.63
2017-03-13T09:51:23.674Z,67.54
2017-03-13T09:52:05.360Z,67.35
2017-03-13T09:52:46.054Z,66.91
2017-03-13T09:53:26.738Z,67.19
2017-03-13T09:54:07.307Z,66.72
2017-03-13T09:54:48.007Z,66.49
2017-03-13T09:55:29.646Z,66.43
2017-03-13T09:56:10.397Z,65.95
2017-03-13T09:56:51.055Z,65.19
2017-03-13T09:57:32.726Z,64.81
2017-03-13T09:58:13.390Z,64.5
2017-03-13T09:58:54.010Z,64.21
2017-03-13T09:59:34.684Z,64.02
2017-03-13T10:00:15.327Z,63.83
2017-03-13T10:00:55.988Z,64.11
2017-03-13T10:01:36.648Z,63.73
2017-03-13T10:02:17.319Z,63.92
2017-03-13T10:02:58.973Z,63.45
2017-03-13T10:03:39.630Z,63.26
2017-03-13T10:04:20.278Z,63.64
2017-03-13T10:05:01.955Z,63.57
2017-03-13T10:05:42.603Z,63.54
2017-03-13T10:06:23.276Z,63.57
2017-03-13T10:07:03.935Z,62.81
2017-03-13T10:07:44.766Z,62.91
2017-03-13T10:08:25.497Z,63.1
2017-03-13T10:09:06.264Z,62.72
2017-03-13T10:09:46.916Z,62.81
2017-03-13T10:10:27.645Z,62.53
2017-03-13T10:11:08.299Z,62.34
2017-03-13T10:11:49.056Z,62.15
2017-03-13T10:12:29.808Z,61.86
2017-03-13T10:13:10.563Z,61.77
2017-03-13T10:13:51.328Z,61.83
2017-03-13T10:14:31.900Z,61.96
2017-03-13T10:15:12.465Z,62.34
2017-03-13T10:15:53.096Z,62.05
2017-03-13T10:16:33.751Z,61.77
2017-03-13T10:17:14.403Z,61.96
2017-03-13T10:17:55.055Z,61.96
2017-03-13T10:18:36.707Z,61.96
2017-03-13T10:19:22.183Z,61.77
2017-03-13T10:20:02.828Z,61.96
2017-03-13T10:20:43.409Z,62.43
2017-03-13T10:21:24.047Z,62.24
2017-03-13T10:22:04.787Z,62.24
2017-03-13T10:22:45.360Z,62.18
2017-03-13T10:23:25.923Z,61.96
2017-03-13T10:24:06.602Z,62.08
2017-03-13T10:24:47.219Z,61.8
2017-03-13T10:25:27.802Z,61.9
2017-03-13T10:26:08.520Z,62.08
2017-03-13T10:26:51.158Z,62.08
2017-03-13T10:27:31.774Z,62.08
2017-03-13T10:28:12.442Z,61.42
2017-03-13T10:28:53.188Z,61.7
2017-03-13T10:29:33.941Z,61.61
2017-03-13T10:30:14.732Z,61.42
2017-03-13T10:30:55.429Z,61.35
2017-03-13T10:31:35.995Z,60.88
2017-03-13T10:32:16.638Z,60.78
2017-03-13T10:32:57.268Z,60.94
2017-03-13T10:33:37.835Z,60.4
2017-03-13T10:34:18.508Z,60.49
2017-03-13T10:34:59.154Z,60.4
2017-03-13T10:35:39.818Z,60.49
2017-03-13T10:36:20.465Z,60.49
2017-03-13T10:37:01.127Z,60.4
2017-03-13T10:37:41.760Z,60.69
2017-03-13T10:38:22.420Z,60.4
2017-03-13T10:39:03.077Z,60.3
2017-03-13T10:39:43.720Z,60.3
2017-03-13T10:40:24.355Z,60.3
2017-03-13T10:41:05.028Z,60.21
2017-03-13T10:41:45.654Z,60.3
2017-03-13T10:42:26.327Z,60.37
2017-03-13T10:43:07.029Z,60.78
2017-03-13T10:43:47.642Z,60.3
2017-03-13T10:44:28.260Z,60.3
2017-03-13T10:45:08.914Z,60.3
2017-03-13T10:45:49.497Z,60.69
2017-03-13T10:46:30.121Z,60.49
2017-03-13T10:47:10.876Z,60.69
2017-03-13T10:47:51.435Z,60.49
2017-03-13T10:48:32.086Z,60.49
2017-03-13T10:49:12.750Z,60.21
2017-03-13T10:49:53.321Z,59.83
2017-03-13T10:50:33.953Z,59.83
2017-03-13T10:51:14.598Z,59.54
2017-03-13T10:51:55.294Z,59.26
2017-03-13T10:52:35.915Z,59.26
2017-03-13T10:53:16.553Z,59.64
2017-03-13T10:53:57.210Z,59.54
2017-03-13T10:54:37.904Z,59.83
2017-03-13T10:55:18.516Z,59.74
2017-03-13T10:55:59.159Z,59.83
2017-03-13T10:56:39.816Z,59.26
2017-03-13T10:57:20.448Z,59.26
2017-03-13T10:58:01.117Z,59.06
2017-03-13T10:58:41.754Z,59.35
2017-03-13T10:59:22.357Z,58.87
2017-03-13T11:00:03.029Z,59.26
2017-03-13T11:00:43.673Z,59.35
2017-03-13T11:01:24.267Z,59.16
2017-03-13T11:02:04.831Z,58.81
2017-03-13T11:02:46.513Z,58.52
2017-03-13T11:03:27.104Z,58.62
2017-03-13T11:04:08.726Z,58.62
2017-03-13T11:04:49.290Z,58.43
2017-03-13T11:05:29.962Z,58.72
2017-03-13T11:06:10.546Z,58.62
2017-03-13T11:06:51.133Z,57.86
2017-03-13T11:07:31.706Z,58.04
2017-03-13T11:08:12.358Z,58.14
2017-03-13T11:08:52.939Z,58.14
2017-03-13T11:09:33.559Z,58.04
2017-03-13T11:10:14.141Z,57.67
2017-03-13T11:10:54.779Z,57.57
2017-03-13T11:11:35.404Z,57.57
2017-03-13T11:12:16.079Z,57.57
2017-03-13T11:12:56.743Z,57.57
2017-03-13T11:13:37.380Z,57.67
2017-03-13T11:14:18.040Z,57.76
2017-03-13T11:14:58.664Z,58.33
2017-03-13T11:15:39.361Z,58.46
2017-03-13T11:16:19.990Z,57.7
2017-03-13T11:17:00.669Z,58.17
2017-03-13T11:17:41.295Z,57.7
2017-03-13T11:18:21.959Z,57.79
2017-03-13T11:19:02.599Z,58.07
2017-03-13T11:19:43.174Z,57.98
2017-03-13T11:20:23.798Z,57.7
2017-03-13T11:21:04.358Z,57.5
2017-03-13T11:21:44.992Z,57.31
2017-03-13T11:22:25.559Z,57.48
2017-03-13T11:23:06.206Z,57.09
2017-03-13T11:23:46.804Z,57.19
2017-03-13T11:24:27.383Z,57.09
2017-03-13T11:25:07.964Z,56.71
2017-03-13T11:25:48.645Z,57.19
2017-03-13T11:26:29.313Z,56.62
2017-03-13T11:27:09.899Z,56.14
2017-03-13T11:27:50.452Z,56.04
2017-03-13T11:28:31.120Z,56.14
2017-03-13T11:29:12.751Z,55.95
2017-03-13T11:29:53.370Z,55.95
2017-03-13T11:30:34.038Z,56.24
2017-03-13T11:31:14.703Z,56.04
2017-03-13T11:31:55.360Z,56.04
2017-03-13T11:32:35.998Z,56.26
2017-03-13T11:33:16.671Z,56.36
2017-03-13T11:33:57.298Z,56.26
2017-03-13T11:34:37.918Z,56.17
2017-03-13T11:35:18.486Z,56.17
2017-03-13T11:35:59.144Z,56.07
2017-03-13T11:36:39.815Z,56.17
2017-03-13T11:37:20.422Z,55.69
2017-03-13T11:38:01.006Z,55.88
2017-03-13T11:38:41.658Z,55.41
2017-03-13T11:39:22.330Z,55.79
2017-03-13T11:40:02.996Z,55.69
2017-03-13T11:40:43.652Z,55.69
2017-03-13T11:41:24.290Z,55.02
2017-03-13T11:42:04.946Z,55.12
2017-03-13T11:42:45.617Z,55.21
2017-03-13T11:43:26.247Z,55.21
2017-03-13T11:44:07.943Z,54.64
2017-03-13T11:44:48.621Z,55.12
2017-03-13T11:45:29.194Z,55.12
2017-03-13T11:46:09.851Z,55.02
2017-03-13T11:46:50.446Z,54.93
2017-03-13T11:47:31.040Z,54.74
2017-03-13T11:48:11.604Z,55.02
2017-03-13T11:48:52.247Z,55.12
2017-03-13T11:49:32.973Z,55.12
2017-03-13T11:50:13.645Z,55.02
2017-03-13T11:50:54.236Z,54.45
2017-03-13T11:51:34.890Z,54.93
2017-03-13T11:52:15.560Z,54.45
2017-03-13T11:52:57.180Z,54.64
2017-03-13T11:53:37.761Z,54.55
2017-03-13T11:54:18.415Z,54.26
2017-03-13T11:54:59.100Z,54.26
2017-03-13T11:55:39.772Z,53.97
2017-03-13T11:56:20.333Z,54.17
2017-03-13T11:57:01.005Z,54.17
2017-03-13T11:57:41.665Z,54.45
2017-03-13T11:58:22.320Z,54.26
2017-03-13T11:59:02.978Z,54.26
2017-03-13T11:59:43.628Z,54.26
2017-03-13T12:00:24.308Z,54.45
2017-03-13T12:01:04.927Z,54.55
2017-03-13T12:01:45.592Z,54.36
2017-03-13T12:02:27.251Z,54.55
2017-03-13T12:03:07.925Z,54.26
2017-03-13T12:03:48.577Z,54.17
2017-03-13T12:04:29.257Z,54.36
2017-03-13T12:05:09.872Z,54.26
2017-03-13T12:05:50.521Z,54.45
2017-03-13T12:06:31.183Z,54.07
2017-03-13T12:07:11.841Z,54.07
2017-03-13T12:07:52.510Z,54.26
2017-03-13T12:08:33.156Z,54.36
2017-03-13T12:09:13.782Z,53.97
2017-03-13T12:09:54.461Z,54.07
2017-03-13T12:10:35.109Z,54.17
2017-03-13T12:11:15.750Z,53.97
2017-03-13T12:11:56.389Z,54.17
2017-03-13T12:12:37.073Z,53.72
2017-03-13T12:13:17.695Z,53.43
2017-03-13T12:13:58.379Z,53.72
2017-03-13T12:14:39.015Z,53.59
2017-03-13T12:15:19.712Z,53.72
2017-03-13T12:16:00.295Z,53.53
2017-03-13T12:16:40.876Z,53.62
2017-03-13T12:17:21.517Z,54.1
2017-03-13T12:18:02.108Z,53.81
2017-03-13T12:18:42.703Z,54.19
2017-03-13T12:19:23.279Z,54.1
2017-03-13T12:20:03.927Z,54
2017-03-13T12:20:44.484Z,53.84
2017-03-13T12:21:25.120Z,53.55
2017-03-13T12:22:05.725Z,53.81
2017-03-13T12:22:46.312Z,53.74
2017-03-13T12:23:26.870Z,53.62
2017-03-13T12:24:07.543Z,53.43
2017-03-13T12:24:48.138Z,53.24
2017-03-13T12:25:28.742Z,52.95
2017-03-13T12:26:09.387Z,53.14
2017-03-13T12:26:50.062Z,52.76
2017-03-13T12:27:30.705Z,53.05
2017-03-13T12:28:11.371Z,52.28
2017-03-13T12:28:52.032Z,52.38
2017-03-13T12:29:32.650Z,52.67
2017-03-13T12:30:13.248Z,52.48
2017-03-13T12:30:53.849Z,52.19
2017-03-13T12:31:34.413Z,52.48
2017-03-13T12:32:15.080Z,51.71
2017-03-13T12:32:55.768Z,52
2017-03-13T12:33:36.349Z,52.09
2017-03-13T12:34:16.924Z,52.09
2017-03-13T12:34:57.614Z,51.9
2017-03-13T12:35:38.280Z,52.09
2017-03-13T12:36:18.921Z,51.9
2017-03-13T12:36:59.573Z,52.09
2017-03-13T12:37:40.222Z,52.19
2017-03-13T12:38:20.889Z,52.19
2017-03-13T12:39:01.534Z,52.09
2017-03-13T12:39:42.132Z,52.12
2017-03-13T12:40:22.689Z,52.22
2017-03-13T12:41:03.361Z,51.74
2017-03-13T12:41:44.036Z,52.4
2017-03-13T12:42:24.648Z,52.4
2017-03-13T12:43:05.229Z,52.31
2017-03-13T12:43:45.876Z,52.69
2017-03-13T12:44:27.483Z,52.79
2017-03-13T12:45:08.140Z,52.59
2017-03-13T12:45:49.812Z,52.34
2017-03-13T12:46:30.460Z,52.5
2017-03-13T12:47:11.113Z,52.22
2017-03-13T12:47:51.755Z,52.24
2017-03-13T12:48:32.416Z,51.29
2017-03-13T12:49:13.062Z,51.57
2017-03-13T12:49:53.721Z,51.67
2017-03-13T12:50:34.333Z,51.76
2017-03-13T12:51:15.008Z,51.76
2017-03-13T12:54:38.249Z,51.86
2017-03-13T12:55:18.873Z,51.76
2017-03-13T12:55:59.474Z,51.48
2017-03-13T12:56:40.118Z,51.48
2017-03-13T12:57:20.779Z,51.67
2017-03-13T12:58:01.419Z,51.29
2017-03-13T12:58:42.075Z,51.57
2017-03-13T12:59:22.730Z,50.9
2017-03-13T13:00:03.392Z,50.71
2017-03-13T13:00:44.038Z,50.71
2017-03-13T13:01:24.671Z,51
2017-03-13T13:02:05.343Z,50.9
2017-03-13T13:02:45.969Z,50.81
2017-03-13T13:03:27.643Z,50.9
2017-03-13T13:04:08.297Z,50.81
2017-03-13T13:04:48.876Z,50.81
2017-03-13T13:05:29.515Z,50.81
2017-03-13T13:06:10.216Z,50.74
2017-03-13T13:06:50.799Z,50.71
2017-03-13T13:07:31.377Z,50.62
2017-03-13T13:08:12.048Z,50.52
2017-03-13T13:08:52.730Z,50.62
2017-03-13T13:09:34.340Z,50.43
2017-03-13T13:10:14.992Z,50.14
2017-03-13T13:10:55.642Z,50.14
2017-03-13T13:11:37.322Z,50.33
2017-03-13T13:12:17.980Z,50.52
2017-03-13T13:12:58.627Z,50.93
2017-03-13T13:13:39.283Z,50.93
2017-03-13T13:14:19.933Z,50.64
2017-03-13T13:15:00.591Z,50.55
2017-03-13T13:15:41.240Z,50.55
2017-03-13T13:16:21.893Z,50.16
2017-03-13T13:17:02.541Z,50.07
2017-03-13T13:17:43.200Z,50.16
2017-03-13T13:18:23.851Z,49.78
2017-03-13T13:19:04.502Z,49.98
2017-03-13T13:19:45.159Z,50.16
2017-03-13T13:20:25.805Z,50.26
2017-03-13T13:21:06.462Z,50.45
2017-03-13T13:21:47.113Z,49.98
2017-03-13T13:22:27.765Z,49.98
2017-03-13T13:23:08.418Z,50.26
2017-03-13T13:23:49.097Z,49.52
2017-03-13T13:24:29.796Z,49.43
2017-03-13T13:25:10.352Z,49.52
2017-03-13T13:25:51.059Z,49.14
2017-03-13T13:26:31.700Z,49.52
2017-03-13T13:27:12.365Z,49.23
2017-03-13T13:27:53.017Z,49.23
2017-03-13T13:28:33.671Z,48.57
2017-03-13T13:29:15.349Z,48.57
2017-03-13T13:29:56.012Z,48.57
2017-03-13T13:30:38.635Z,48.66
2017-03-13T13:31:19.309Z,48.57
2017-03-13T13:31:59.905Z,48.57
2017-03-13T13:32:40.555Z,48.66
2017-03-13T13:33:21.216Z,48.57
2017-03-13T13:34:01.870Z,48.75
2017-03-13T13:34:42.501Z,48.57
2017-03-13T13:35:23.244Z,48.38
2017-03-13T13:36:03.919Z,48.47
2017-03-13T13:36:44.574Z,48.28
2017-03-13T13:37:25.238Z,47.99
2017-03-13T13:38:05.873Z,47.71
2017-03-13T13:38:47.556Z,47.8
2017-03-13T13:39:28.209Z,47.61
2017-03-13T13:40:08.854Z,47.61
2017-03-13T13:40:50.426Z,47.42
2017-03-13T13:41:31.088Z,47.61
2017-03-13T13:42:11.736Z,47.71
2017-03-13T13:42:52.388Z,47.71
2017-03-13T13:43:33.050Z,47.71
2017-03-13T13:44:13.720Z,47.71
2017-03-13T13:44:54.355Z,47.89
2017-03-13T13:45:34.930Z,47.71
2017-03-13T13:46:15.600Z,47.52
2017-03-13T13:46:56.251Z,47.61
2017-03-13T13:47:36.864Z,47.61
2017-03-13T13:48:17.433Z,47.71
2017-03-13T13:48:58.064Z,47.8
2017-03-13T13:49:38.770Z,47.82
2017-03-13T13:50:20.448Z,47.82
2017-03-13T13:51:01.083Z,47.53
2017-03-13T13:51:41.762Z,47.63
2017-03-13T13:52:22.385Z,47.25
2017-03-13T13:53:03.052Z,47.16
2017-03-13T13:53:43.709Z,47.06
2017-03-13T13:54:24.436Z,46.39
2017-03-13T13:55:05.038Z,46.48
2017-03-13T13:55:45.604Z,46.66
2017-03-13T13:56:26.279Z,46.77
2017-03-13T13:57:06.947Z,46.48
2017-03-13T13:57:47.624Z,46.39
2017-03-13T13:58:28.332Z,46.39
2017-03-13T13:59:09.076Z,46.2
2017-03-13T13:59:49.733Z,46.01
2017-03-13T14:00:30.325Z,46.39
2017-03-13T14:01:11.108Z,46.39
2017-03-13T14:01:51.774Z,46.39
2017-03-13T14:02:32.588Z,46.39
2017-03-13T14:03:13.145Z,46.3
2017-03-13T14:03:54.823Z,46.3
2017-03-13T14:04:35.801Z,46.2
2017-03-13T14:05:16.396Z,46.01
2017-03-13T14:05:57.068Z,45.81
2017-03-13T14:06:37.721Z,46.22
2017-03-13T14:07:19.410Z,45.84
2017-03-13T14:08:00.051Z,45.94
2017-03-13T14:08:40.704Z,45.45
2017-03-13T14:09:21.339Z,45.36
2017-03-13T14:10:01.989Z,44.98
2017-03-13T14:10:42.657Z,44.98
2017-03-13T14:11:27.814Z,45.17
2017-03-13T14:12:08.451Z,44.69
2017-03-13T14:12:49.011Z,44.98
2017-03-13T14:13:29.677Z,44.88
2017-03-13T14:14:10.335Z,44.79
2017-03-13T14:14:51.124Z,44.98
2017-03-13T14:15:31.746Z,44.4
2017-03-13T14:16:12.379Z,44.12
2017-03-13T14:16:53.048Z,44.02
2017-03-13T14:17:38.311Z,44.5
2017-03-13T14:18:18.972Z,44.02
2017-03-13T14:19:00.629Z,43.92
2017-03-13T14:19:41.303Z,43.63
2017-03-13T14:20:21.880Z,43.8
2017-03-13T14:21:02.516Z,43.44
2017-03-13T14:21:43.161Z,43.62
2017-03-13T14:22:23.804Z,43.62
2017-03-13T14:23:04.473Z,43.62
2017-03-13T14:23:45.155Z,43.8
2017-03-13T14:24:25.840Z,43.71
2017-03-13T14:25:06.492Z,43.73
2017-03-13T14:25:47.143Z,43.62
2017-03-13T14:26:27.926Z,43.35
2017-03-13T14:27:08.645Z,43.8
2017-03-13T14:27:49.320Z,43.62
2017-03-13T14:28:29.982Z,43.9
2017-03-13T14:29:10.618Z,43.62
2017-03-13T14:29:51.197Z,43.62
2017-03-13T14:30:31.846Z,43.62
2017-03-13T14:31:12.426Z,44
2017-03-13T14:31:53.058Z,43.8
2017-03-13T14:32:33.619Z,43.8
2017-03-13T14:33:14.242Z,44
2017-03-13T14:33:54.836Z,44.09
2017-03-13T14:34:37.470Z,44.09
2017-03-13T14:35:18.046Z,44
2017-03-13T14:35:58.705Z,43.9
2017-03-13T14:36:39.401Z,44.76
2017-03-13T14:37:22.050Z,44.19
2017-03-13T14:38:03.724Z,43.9
2017-03-13T14:38:44.390Z,44
2017-03-13T14:39:25.020Z,44.09
2017-03-13T14:47:11.577Z,43.9
2017-03-13T14:47:52.218Z,44
2017-03-13T14:48:32.850Z,43.9
2017-03-13T14:49:14.449Z,44.29
2017-03-13T14:49:55.074Z,44.29
2017-03-13T14:50:35.683Z,44.67
2017-03-13T14:51:16.286Z,44
2017-03-13T14:51:56.878Z,44.29
2017-03-13T14:52:37.517Z,44
2017-03-13T14:53:18.195Z,44.09
2017-03-13T14:53:58.793Z,44.29
2017-03-13T14:54:39.355Z,44.76
2017-03-13T14:55:20.030Z,44.86
2017-03-13T14:56:00.661Z,44.79
2017-03-13T14:56:41.233Z,44.76
2017-03-13T14:57:21.865Z,44.86
2017-03-13T14:58:02.527Z,44.98
2017-03-13T14:58:43.179Z,44.95
2017-03-13T14:59:23.837Z,44.86
2017-03-13T15:00:04.490Z,44.57
2017-03-13T15:00:45.102Z,45.34
2017-03-13T15:01:25.690Z,44.95
2017-03-13T15:02:06.346Z,45.05
2017-03-13T15:02:46.966Z,45.24
2017-03-13T15:03:27.541Z,45.24
2017-03-13T15:04:08.196Z,44.95
2017-03-13T15:04:48.824Z,45.07
2017-03-13T15:05:29.411Z,45.15
2017-03-13T15:06:10.053Z,45.45
2017-03-13T15:06:50.637Z,45.45
2017-03-13T15:07:31.222Z,45.81
2017-03-13T15:08:11.876Z,45.94
2017-03-13T15:08:52.558Z,46.39
2017-03-13T15:09:33.264Z,46.3
2017-03-13T15:10:13.848Z,46.67
2017-03-13T15:10:54.495Z,46.58
2017-03-13T15:11:35.069Z,46.87
2017-03-13T15:12:15.721Z,46.87
2017-03-13T15:12:56.305Z,47.06
2017-03-13T15:13:36.905Z,47.53
2017-03-13T15:14:17.492Z,47.73
2017-03-13T15:14:58.123Z,47.82
2017-03-13T15:15:38.966Z,48.02
2017-03-13T15:16:19.627Z,48.39
2017-03-13T15:17:00.293Z,48.68